Terminal Aerodrome Forecast
Issued by NWS

Home | Current Version | Previous Version | Text Only | Print | Product List | Glossary On
Versions: 1 2 3 4 5 6 7 8 9 10 11 12 13 14 15 16
000
FTUS41 KRLX 210500
TAFCKB
TAF
KCKB 210523Z 2106/2206 12005KT P6SM SKC
     FM211700 24004KT P6SM SKC
     FM220000 00000KT P6SM BKN250=

USA.gov is the U.S. government's official web portal to all federal, state and local government web resources and services.